Fur Airport


Codes: EKFU/
Name: Fur Airport
City: Fur
Country: Denmark
Elevation: 30 ft.

Photos at Fur Airport


   Photos courtesy of SpottingLog. You can add your own sightings and photos by signing up for a free trial today.



No photos found.

Weather at Fur Airport


Time (UTC)DescriptionTempratureWindCloud coverageVisibilityPressureHumidity
16-Jun-2024 09:00Light Rain17°C16 mph, S16%10000m1005hPa74%
16-Jun-2024 12:00Light Rain17°C16 mph, S24%10000m1005hPa75%
16-Jun-2024 15:00Light Rain17°C11 mph, S61%10000m1005hPa72%
16-Jun-2024 18:00Light Rain15°C9 mph, S91%7485m1005hPa89%
16-Jun-2024 21:00Moderate Rain13°C7 mph, S100%10000m1006hPa95%
17-Jun-2024 00:00Light Rain12°C11 mph, S100%10000m1006hPa96%
17-Jun-2024 03:00Few Clouds10°C9 mph, S20%10000m1007hPa97%
17-Jun-2024 06:00Scattered Clouds13°C11 mph, SW27%10000m1009hPa91%
17-Jun-2024 09:00Broken Clouds16°C11 mph, SW76%10000m1010hPa75%
17-Jun-2024 12:00Light Rain18°C9 mph, S61%10000m1010hPa70%
17-Jun-2024 15:00Light Rain17°C13 mph, SW73%7346m1010hPa78%
17-Jun-2024 18:00Light Rain15°C11 mph, SW50%10000m1010hPa86%
17-Jun-2024 21:00Few Clouds11°C9 mph, SW11%10000m1011hPa96%
18-Jun-2024 00:00Scattered Clouds10°C11 mph, SW30%10000m1011hPa95%
18-Jun-2024 03:00Broken Clouds10°C13 mph, SW53%10000m1011hPa95%
18-Jun-2024 06:00Light Rain13°C18 mph, SW51%10000m1010hPa90%
18-Jun-2024 09:00Light Rain14°C18 mph, SW64%10000m1011hPa78%
18-Jun-2024 12:00Light Rain15°C20 mph, W47%10000m1012hPa80%
18-Jun-2024 15:00Light Rain15°C16 mph, W81%10000m1012hPa79%
18-Jun-2024 18:00Broken Clouds13°C16 mph, W83%10000m1012hPa85%
18-Jun-2024 21:00Few Clouds10°C13 mph, W12%10000m1012hPa88%
19-Jun-2024 00:00Light Rain11°C18 mph, W39%10000m1011hPa90%
19-Jun-2024 03:00Scattered Clouds11°C18 mph, W50%10000m1010hPa91%
19-Jun-2024 06:00Scattered Clouds12°C25 mph, NW39%10000m1011hPa80%
19-Jun-2024 09:00Few Clouds13°C25 mph, NW19%10000m1013hPa76%
19-Jun-2024 12:00Broken Clouds13°C25 mph, NW55%10000m1015hPa70%
19-Jun-2024 15:00Broken Clouds13°C22 mph, W69%10000m1016hPa75%
19-Jun-2024 18:00Broken Clouds11°C18 mph, W67%10000m1017hPa77%
19-Jun-2024 21:00Few Clouds11°C18 mph, W13%10000m1017hPa86%
20-Jun-2024 00:00Few Clouds12°C18 mph, SW23%10000m1016hPa91%
20-Jun-2024 03:00Scattered Clouds12°C18 mph, SW36%10000m1015hPa94%
20-Jun-2024 06:00Broken Clouds15°C16 mph, W57%10000m1015hPa89%
20-Jun-2024 09:00Broken Clouds16°C18 mph, W51%10000m1015hPa79%
20-Jun-2024 12:00Scattered Clouds17°C20 mph, SW31%10000m1016hPa73%
20-Jun-2024 15:00Broken Clouds16°C18 mph, W60%10000m1015hPa75%
20-Jun-2024 18:00Broken Clouds14°C9 mph, W81%10000m1014hPa85%
20-Jun-2024 21:00Overcast Clouds11°C9 mph, SW95%10000m1014hPa95%
21-Jun-2024 00:00Broken Clouds11°C4 mph, SW77%10000m1013hPa96%
21-Jun-2024 03:00Broken Clouds10°C2 mph, SW82%10000m1012hPa94%
21-Jun-2024 06:00Overcast Clouds13°C7 mph, S91%10000m1011hPa91%